Time;durP1;ratioP1;P1;durP2;ratioP2;P2;SDS_P1;SDS_P2;PMS_P1;PMS_P2;Temp;Humidity;BMP_temperature;BMP_pressure;BME280_temperature;BME280_humidity;BME280_pressure;Samples;Min_cycle;Max_cycle;Signal;HPM_P1;HPM_P2
2023/06/25 00:01:31;;;;;;;4.77;3.63;;;16.60;8.70;;;;;;5014377;28;20180;-70
2023/06/25 00:03:57;;;;;;;6.03;5.20;;;16.50;8.90;;;;;;5014685;28;20187;-70
2023/06/25 00:06:23;;;;;;;6.13;5.50;;;16.50;9.10;;;;;;5014513;28;20226;-70
2023/06/25 00:08:51;;;;;;;6.73;5.60;;;16.50;9.10;;;;;;5014612;28;20196;-70
2023/06/25 00:11:18;;;;;;;7.60;5.77;;;16.50;8.90;;;;;;5014437;28;20318;-70
2023/06/25 00:13:43;;;;;;;8.47;6.10;;;16.50;9.40;;;;;;5012885;28;20426;-70
2023/06/25 00:16:09;;;;;;;5.10;4.60;;;16.40;9.50;;;;;;5014374;28;20480;-70
2023/06/25 00:18:34;;;;;;;5.50;5.00;;;16.40;9.60;;;;;;5014541;28;20206;-70
2023/06/25 00:21:05;;;;;;;6.87;4.90;;;16.30;9.50;;;;;;5014547;28;20226;-70
2023/06/25 00:23:30;;;;;;;6.40;4.80;;;16.30;9.60;;;;;;5014241;28;20160;-71
2023/06/25 00:25:56;;;;;;;6.20;4.10;;;16.30;9.60;;;;;;5014153;28;20509;-69
2023/06/25 00:28:21;;;;;;;5.00;4.47;;;16.20;9.50;;;;;;5014064;28;20199;-71
2023/06/25 00:30:47;;;;;;;6.03;4.87;;;16.20;9.50;;;;;;5014294;28;20225;-70
2023/06/25 00:33:13;;;;;;;5.73;4.40;;;16.20;9.90;;;;;;5014002;28;20258;-70
2023/06/25 00:35:59;;;;;;;5.23;4.47;;;16.10;9.70;;;;;;5014121;28;20183;-71
2023/06/25 00:38:24;;;;;;;5.13;4.63;;;16.10;9.70;;;;;;5014150;28;20204;-69
2023/06/25 00:40:51;;;;;;;8.30;6.10;;;16.00;10.00;;;;;;5014005;28;20427;-71
2023/06/25 00:43:21;;;;;;;5.27;4.77;;;16.00;9.80;;;;;;5012612;28;20186;-70
2023/06/25 00:45:46;;;;;;;5.67;4.97;;;15.90;10.20;;;;;;5014537;28;20463;-70
2023/06/25 00:48:13;;;;;;;5.97;4.87;;;15.90;10.60;;;;;;5014447;28;20979;-70
2023/06/25 00:50:42;;;;;;;4.97;3.67;;;15.90;11.00;;;;;;5014477;28;20415;-70
2023/06/25 00:53:09;;;;;;;4.93;4.43;;;15.90;11.30;;;;;;5014185;28;20411;-71
2023/06/25 00:55:35;;;;;;;6.17;4.70;;;15.80;10.90;;;;;;5014167;28;20559;-70
2023/06/25 00:58:01;;;;;;;6.60;5.67;;;15.80;11.00;;;;;;5013715;28;20462;-69
2023/06/25 01:00:33;;;;;;;5.27;4.73;;;15.80;11.00;;;;;;5013900;28;20915;-69
2023/06/25 01:03:26;;;;;;;5.00;4.20;;;15.80;11.40;;;;;;5013417;28;20183;-69
2023/06/25 01:06:08;;;;;;;6.33;5.70;;;15.70;11.80;;;;;;5013046;28;20551;-69
2023/06/25 01:08:37;;;;;;;6.30;4.20;;;15.70;11.50;;;;;;5013476;28;20434;-69
2023/06/25 01:11:04;;;;;;;6.63;5.57;;;15.70;11.70;;;;;;5013376;28;20519;-69
2023/06/25 01:13:30;;;;;;;6.90;5.27;;;15.70;11.90;;;;;;5013002;28;20447;-70
2023/06/25 01:15:56;;;;;;;9.97;6.50;;;15.60;12.00;;;;;;5013548;28;20446;-70
2023/06/25 01:18:23;;;;;;;5.43;4.73;;;15.70;12.40;;;;;;5013078;28;20203;-70
2023/06/25 01:20:51;;;;;;;6.00;4.97;;;15.60;11.60;;;;;;5013301;28;20548;-70
2023/06/25 01:23:17;;;;;;;5.80;5.07;;;15.50;11.70;;;;;;5012975;28;20419;-70
2023/06/25 01:25:47;;;;;;;8.80;5.33;;;15.50;12.50;;;;;;5011535;28;20593;-70
2023/06/25 01:28:13;;;;;;;6.70;4.93;;;15.50;12.90;;;;;;5012839;28;20438;-70
2023/06/25 01:30:39;;;;;;;4.87;4.20;;;15.40;12.70;;;;;;5012879;28;20421;-71
2023/06/25 01:33:04;;;;;;;4.87;4.37;;;15.40;12.70;;;;;;5012691;28;20941;-70
2023/06/25 01:35:30;;;;;;;7.00;4.87;;;15.40;12.80;;;;;;5012903;28;20198;-70
2023/06/25 01:37:56;;;;;;;5.90;4.30;;;15.30;13.30;;;;;;5012852;28;20229;-71
2023/06/25 01:40:22;;;;;;;7.60;5.50;;;15.30;13.30;;;;;;5012870;28;20203;-70
2023/06/25 01:42:47;;;;;;;6.70;5.60;;;15.30;13.30;;;;;;5012601;28;20469;-70
2023/06/25 01:45:13;;;;;;;7.43;5.47;;;15.30;13.30;;;;;;5012549;28;20454;-70
2023/06/25 01:47:39;;;;;;;6.63;5.93;;;15.30;13.40;;;;;;5012486;28;20203;-70
2023/06/25 01:50:05;;;;;;;4.70;4.30;;;15.30;13.30;;;;;;5012561;28;20183;-70
2023/06/25 01:52:32;;;;;;;7.83;5.77;;;15.20;13.30;;;;;;5012487;28;20410;-70
2023/06/25 01:54:58;;;;;;;7.67;4.03;;;15.20;13.30;;;;;;5012642;28;20413;-71
2023/06/25 01:57:23;;;;;;;4.83;4.23;;;15.20;13.30;;;;;;5012885;28;20871;-71
2023/06/25 01:59:49;;;;;;;5.83;4.60;;;15.10;13.50;;;;;;5012444;28;20185;-71
2023/06/25 02:02:15;;;;;;;6.30;4.50;;;15.10;14.20;;;;;;5012164;28;20575;-70
2023/06/25 02:04:40;;;;;;;7.53;6.13;;;15.10;14.00;;;;;;5012370;28;20180;-71
2023/06/25 02:07:06;;;;;;;4.90;3.47;;;15.10;14.40;;;;;;5012206;28;20359;-71
2023/06/25 02:09:32;;;;;;;5.27;4.50;;;15.00;14.30;;;;;;5012326;28;20182;-71
2023/06/25 02:11:57;;;;;;;5.90;5.17;;;15.00;14.10;;;;;;5012080;28;20658;-70
2023/06/25 02:14:23;;;;;;;7.70;5.50;;;14.90;14.30;;;;;;5012191;28;20417;-70
2023/06/25 02:16:49;;;;;;;4.90;4.20;;;14.90;15.00;;;;;;5011340;28;20237;-71
2023/06/25 02:19:14;;;;;;;6.10;3.80;;;14.80;14.10;;;;;;5012078;28;20209;-71
2023/06/25 02:21:40;;;;;;;6.53;5.17;;;14.80;14.60;;;;;;5012127;28;20261;-71
2023/06/25 02:24:06;;;;;;;5.13;3.90;;;14.80;14.80;;;;;;5012139;28;20183;-71
2023/06/25 02:26:31;;;;;;;7.07;5.47;;;14.80;15.20;;;;;;5012110;28;20252;-71
2023/06/25 02:28:57;;;;;;;6.40;4.83;;;14.80;15.10;;;;;;5012038;28;20248;-71
2023/06/25 02:31:23;;;;;;;5.30;4.53;;;14.80;15.80;;;;;;5011964;28;20189;-71
2023/06/25 02:33:48;;;;;;;7.33;5.47;;;14.70;15.00;;;;;;5011941;28;20183;-71
2023/06/25 02:36:14;;;;;;;7.03;5.43;;;14.70;15.00;;;;;;5012064;28;20191;-71
2023/06/25 02:38:39;;;;;;;6.10;5.33;;;14.70;15.10;;;;;;5012138;28;20204;-72
2023/06/25 02:41:05;;;;;;;5.70;4.40;;;14.60;15.30;;;;;;5012228;28;20595;-72
2023/06/25 02:43:31;;;;;;;6.57;3.63;;;14.60;15.40;;;;;;5012137;28;20182;-72
2023/06/25 02:45:56;;;;;;;6.07;4.13;;;14.60;15.70;;;;;;5012522;28;20199;-72
2023/06/25 02:48:23;;;;;;;5.53;4.23;;;14.60;15.60;;;;;;5012236;28;20218;-71
2023/06/25 02:50:48;;;;;;;6.63;5.20;;;14.60;15.80;;;;;;5011420;28;20486;-71
2023/06/25 02:53:14;;;;;;;6.60;4.57;;;14.60;15.80;;;;;;5011834;28;20422;-71
2023/06/25 02:55:40;;;;;;;7.53;5.20;;;14.60;15.80;;;;;;5012130;28;20188;-71
2023/06/25 02:58:06;;;;;;;7.80;4.30;;;14.50;16.40;;;;;;5011741;28;20231;-71
2023/06/25 03:00:31;;;;;;;5.50;4.27;;;14.50;16.40;;;;;;5011818;28;20419;-72
2023/06/25 03:02:57;;;;;;;6.57;4.83;;;14.60;16.20;;;;;;5011602;28;20695;-71
2023/06/25 03:05:23;;;;;;;6.20;4.60;;;14.60;16.60;;;;;;5011724;28;20188;-72
2023/06/25 03:07:53;;;;;;;7.60;5.20;;;14.50;17.20;;;;;;5011705;28;20215;-72
2023/06/25 03:10:20;;;;;;;6.90;4.40;;;14.50;17.20;;;;;;5011835;28;20181;-71
2023/06/25 03:12:46;;;;;;;6.00;5.10;;;14.50;17.20;;;;;;5011455;28;20469;-71
2023/06/25 03:15:12;;;;;;;6.17;4.80;;;14.50;16.30;;;;;;5011675;28;20421;-73
2023/06/25 03:17:37;;;;;;;5.73;4.07;;;14.50;16.60;;;;;;5011835;28;20220;-71
2023/06/25 03:20:03;;;;;;;6.00;4.70;;;14.50;16.60;;;;;;5011190;28;20180;-71
2023/06/25 03:22:32;;;;;;;4.57;3.50;;;14.50;17.20;;;;;;5011501;28;20182;-71
2023/06/25 03:24:57;;;;;;;5.90;4.57;;;14.50;16.50;;;;;;5011664;28;20705;-70
2023/06/25 03:27:23;;;;;;;6.27;4.43;;;14.40;17.10;;;;;;5012215;28;20472;-71
2023/06/25 03:29:49;;;;;;;6.00;5.40;;;14.40;16.60;;;;;;5015235;28;20174;-71
2023/06/25 03:32:14;;;;;;;6.03;4.87;;;14.40;16.40;;;;;;5015134;28;20260;-71
2023/06/25 03:34:40;;;;;;;7.00;5.13;;;14.40;16.50;;;;;;5014999;28;20692;-71
2023/06/25 03:37:05;;;;;;;6.10;4.73;;;14.40;17.10;;;;;;5013649;28;20277;-72
2023/06/25 03:39:34;;;;;;;4.83;4.20;;;14.40;17.10;;;;;;5015064;28;20211;-72
2023/06/25 03:41:59;;;;;;;5.47;4.10;;;14.40;17.10;;;;;;5014699;28;20186;-72
2023/06/25 03:44:25;;;;;;;5.30;3.80;;;14.40;17.10;;;;;;5014870;28;20429;-72
2023/06/25 03:46:50;;;;;;;5.87;5.10;;;14.40;17.10;;;;;;5014879;28;20568;-72
2023/06/25 03:49:16;;;;;;;5.53;4.50;;;14.30;17.60;;;;;;5014846;28;20672;-72
2023/06/25 03:51:41;;;;;;;7.67;5.03;;;14.40;17.70;;;;;;5014466;28;20184;-72
2023/06/25 03:54:07;;;;;;;5.97;4.80;;;14.30;17.70;;;;;;5014724;28;20211;-72
2023/06/25 03:56:32;;;;;;;7.40;5.03;;;14.40;18.20;;;;;;5014612;28;20213;-71
2023/06/25 03:59:01;;;;;;;8.10;6.33;;;14.40;18.90;;;;;;5014394;28;20739;-71
2023/06/25 04:01:27;;;;;;;6.50;5.90;;;14.40;20.60;;;;;;5013198;28;20218;-71
2023/06/25 04:03:52;;;;;;;8.37;6.37;;;14.40;21.40;;;;;;5014560;28;20845;-70
2023/06/25 04:06:18;;;;;;;7.63;6.33;;;14.40;21.50;;;;;;5014602;28;20280;-70
2023/06/25 04:08:43;;;;;;;6.67;5.90;;;14.40;22.30;;;;;;5014508;28;20275;-70
2023/06/25 04:11:09;;;;;;;6.67;6.00;;;14.50;21.70;;;;;;5014315;28;20182;-71
2023/06/25 04:13:34;;;;;;;7.00;5.33;;;14.50;21.40;;;;;;5014139;28;20185;-71
2023/06/25 04:16:00;;;;;;;6.33;5.60;;;14.50;21.40;;;;;;5014293;28;20209;-71
2023/06/25 04:18:26;;;;;;;6.53;5.90;;;14.60;21.50;;;;;;5012919;28;20201;-71
2023/06/25 04:20:51;;;;;;;8.73;7.93;;;14.60;21.50;;;;;;5014274;28;20577;-70
2023/06/25 04:23:17;;;;;;;6.67;6.07;;;14.60;21.70;;;;;;5014356;28;20186;-70
2023/06/25 04:25:43;;;;;;;6.87;5.10;;;14.60;21.50;;;;;;5013961;28;20569;-70
2023/06/25 04:28:18;;;;;;;7.13;5.23;;;14.70;21.60;;;;;;5012772;28;20435;-70
2023/06/25 04:30:43;;;;;;;8.80;6.10;;;14.80;21.70;;;;;;5014057;28;20420;-70
2023/06/25 04:33:09;;;;;;;6.43;5.57;;;14.80;21.60;;;;;;5013706;28;20756;-70
2023/06/25 04:35:35;;;;;;;7.30;6.60;;;14.90;21.70;;;;;;5013951;28;20283;-69
2023/06/25 04:38:00;;;;;;;8.63;5.70;;;14.90;21.20;;;;;;5013760;28;20208;-70
2023/06/25 04:40:26;;;;;;;7.20;6.40;;;15.00;21.30;;;;;;5012781;28;20180;-70
2023/06/25 04:42:52;;;;;;;7.40;5.93;;;15.00;21.80;;;;;;5013876;28;20186;-70
2023/06/25 04:45:19;;;;;;;7.43;5.30;;;15.00;21.70;;;;;;5013686;28;20934;-70
2023/06/25 04:47:44;;;;;;;5.60;4.73;;;15.10;21.80;;;;;;5013629;28;20281;-70
2023/06/25 04:50:10;;;;;;;6.63;5.67;;;15.10;21.30;;;;;;5013650;28;20492;-70
2023/06/25 04:52:36;;;;;;;7.60;6.10;;;15.20;21.20;;;;;;5013364;28;20199;-70
2023/06/25 04:55:01;;;;;;;6.63;5.90;;;15.30;20.70;;;;;;5013505;28;20417;-70
2023/06/25 04:57:27;;;;;;;7.67;6.30;;;15.40;21.00;;;;;;5013171;28;20212;-69
2023/06/25 04:59:52;;;;;;;8.87;6.87;;;15.50;20.10;;;;;;5012310;28;20193;-69
2023/06/25 05:02:18;;;;;;;8.60;7.70;;;15.50;20.20;;;;;;5013377;28;20551;-70
2023/06/25 05:04:44;;;;;;;9.63;7.70;;;15.60;20.20;;;;;;5013740;28;20175;-70
2023/06/25 05:07:09;;;;;;;10.73;6.80;;;15.70;19.10;;;;;;5013347;28;20241;-70
2023/06/25 05:09:35;;;;;;;10.60;8.50;;;15.70;18.30;;;;;;5013438;28;20171;-70
2023/06/25 05:12:01;;;;;;;18.10;8.50;;;15.80;17.80;;;;;;5013096;28;20410;-70
2023/06/25 05:14:27;;;;;;;9.53;8.53;;;15.90;17.50;;;;;;5013284;28;20181;-70
2023/06/25 05:16:53;;;;;;;8.77;6.93;;;16.00;17.30;;;;;;5013324;28;20422;-70
2023/06/25 05:19:18;;;;;;;9.03;7.97;;;16.20;16.80;;;;;;5012356;28;20942;-70
2023/06/25 05:21:44;;;;;;;11.00;7.80;;;16.20;15.80;;;;;;5013205;28;20180;-70
2023/06/25 05:24:09;;;;;;;14.10;7.53;;;16.30;15.80;;;;;;5012986;28;20172;-70
2023/06/25 05:26:35;;;;;;;9.40;8.03;;;16.40;15.40;;;;;;5004596;28;20204;-70
2023/06/25 05:29:02;;;;;;;9.10;7.30;;;16.50;15.00;;;;;;5003430;28;20899;-75
2023/06/25 05:31:29;;;;;;;9.67;6.60;;;16.60;14.30;;;;;;5011913;28;20176;-73
2023/06/25 05:33:54;;;;;;;9.93;8.07;;;16.80;14.00;;;;;;5012932;28;20415;-71
2023/06/25 05:36:21;;;;;;;8.33;7.50;;;17.00;12.80;;;;;;5013011;28;20419;-69
2023/06/25 05:38:46;;;;;;;9.23;6.30;;;17.20;12.30;;;;;;5012703;28;20956;-71
2023/06/25 05:41:12;;;;;;;8.83;7.63;;;17.60;11.70;;;;;;5012654;28;20498;-70
2023/06/25 05:43:38;;;;;;;9.03;6.90;;;18.20;10.00;;;;;;5012418;28;20210;-70
2023/06/25 05:46:03;;;;;;;7.80;6.93;;;20.50;4.70;;;;;;5012380;28;20611;-71
2023/06/25 05:48:29;;;;;;;8.03;7.23;;;23.80;1.00;;;;;;5012546;28;20200;-70
2023/06/25 05:50:55;;;;;;;8.73;7.90;;;27.00;1.00;;;;;;5012926;28;20229;-71
2023/06/25 05:53:23;;;;;;;7.47;6.77;;;29.30;1.00;;;;;;5011748;28;20176;-70
2023/06/25 05:55:49;;;;;;;8.50;7.90;;;30.90;1.00;;;;;;5013161;28;20183;-72
2023/06/25 05:58:15;;;;;;;9.00;8.10;;;32.20;1.00;;;;;;5011746;28;20454;-72
2023/06/25 06:00:40;;;;;;;7.10;6.53;;;33.50;1.00;;;;;;5012907;28;20179;-71
2023/06/25 06:03:06;;;;;;;7.70;7.20;;;35.30;1.00;;;;;;5012716;28;20581;-71
2023/06/25 06:05:31;;;;;;;8.13;7.53;;;34.90;1.00;;;;;;5012609;28;20187;-71
2023/06/25 06:07:57;;;;;;;7.40;6.80;;;35.80;1.00;;;;;;5012959;28;20283;-71
2023/06/25 06:10:23;;;;;;;8.03;7.40;;;37.10;1.00;;;;;;5013140;28;20616;-71
2023/06/25 06:12:48;;;;;;;7.80;7.20;;;37.90;1.00;;;;;;5011104;28;20179;-70
2023/06/25 06:15:14;;;;;;;8.27;7.63;;;38.30;1.00;;;;;;5012746;28;20214;-71
2023/06/25 06:17:39;;;;;;;9.23;8.53;;;37.00;1.00;;;;;;5012324;28;20226;-71
2023/06/25 06:20:06;;;;;;;7.97;7.17;;;37.60;1.00;;;;;;5012488;28;20226;-70
2023/06/25 06:22:31;;;;;;;7.80;7.20;;;37.30;1.00;;;;;;5012010;28;20255;-70
2023/06/25 06:24:57;;;;;;;8.07;7.37;;;36.70;1.00;;;;;;5012167;28;20494;-71
2023/06/25 06:27:22;;;;;;;7.97;7.07;;;36.70;1.00;;;;;;5012127;28;20211;-69
2023/06/25 06:29:48;;;;;;;7.40;6.90;;;37.80;1.00;;;;;;5012336;28;20613;-71
2023/06/25 06:32:14;;;;;;;8.40;7.70;;;38.60;1.00;;;;;;5012155;28;20172;-72
2023/06/25 06:34:41;;;;;;;8.10;7.50;;;39.20;1.00;;;;;;5012909;28;20180;-71
2023/06/25 06:37:07;;;;;;;8.43;7.73;;;39.30;1.00;;;;;;5012334;28;20172;-71
2023/06/25 06:39:33;;;;;;;8.57;7.87;;;39.30;1.00;;;;;;4997635;28;20799;-69
2023/06/25 06:41:58;;;;;;;7.47;6.87;;;40.00;1.00;;;;;;4992423;28;20180;-70
2023/06/25 06:44:25;;;;;;;8.50;7.80;;;39.80;1.00;;;;;;4992585;28;20427;-72
2023/06/25 06:46:51;;;;;;;8.40;7.80;;;39.70;1.00;;;;;;4992701;28;20287;-72
2023/06/25 06:49:17;;;;;;;7.67;7.07;;;37.70;1.00;;;;;;4992719;28;20482;-71
2023/06/25 06:51:43;;;;;;;8.63;7.83;;;37.60;1.00;;;;;;4992368;28;20188;-71
2023/06/25 06:54:08;;;;;;;7.13;6.50;;;38.30;1.00;;;;;;4992843;28;20415;-72
2023/06/25 06:56:38;;;;;;;8.43;7.67;;;39.20;1.00;;;;;;4992572;28;20428;-72
2023/06/25 06:59:05;;;;;;;7.73;7.23;;;38.70;1.00;;;;;;5007570;28;20224;-73
2023/06/25 07:01:30;;;;;;;8.40;7.80;;;39.00;1.00;;;;;;4992624;28;20898;-73
2023/06/25 07:03:56;;;;;;;7.97;7.37;;;39.60;1.00;;;;;;4995709;28;20420;-73
2023/06/25 07:06:22;;;;;;;6.70;6.17;;;39.70;1.00;;;;;;4996176;28;20203;-71
2023/06/25 07:08:47;;;;;;;7.77;7.17;;;40.20;1.00;;;;;;5016076;28;20396;-75
2023/06/25 07:11:16;;;;;;;8.13;7.53;;;39.00;1.00;;;;;;5013245;28;20236;-72
2023/06/25 07:13:43;;;;;;;8.30;7.63;;;39.60;1.00;;;;;;4995604;28;20488;-72
2023/06/25 07:16:09;;;;;;;7.23;6.67;;;39.60;1.00;;;;;;4995948;28;20420;-72
2023/06/25 07:18:35;;;;;;;5.97;5.57;;;40.00;1.00;;;;;;4995702;28;20442;-72
2023/06/25 07:21:01;;;;;;;7.20;6.60;;;39.00;1.00;;;;;;4995684;28;20180;-74
2023/06/25 07:23:26;;;;;;;6.57;6.07;;;40.20;1.00;;;;;;4995664;28;20220;-76
2023/06/25 07:25:52;;;;;;;7.37;6.77;;;40.00;1.00;;;;;;4995050;28;20716;-71
2023/06/25 07:28:17;;;;;;;6.33;5.83;;;40.00;1.00;;;;;;4995577;28;20339;-72
2023/06/25 07:30:43;;;;;;;6.10;5.70;;;40.50;1.00;;;;;;5010790;28;20235;-72
2023/06/25 07:33:08;;;;;;;6.33;5.70;;;41.30;1.00;;;;;;4995307;28;20698;-72
2023/06/25 07:35:34;;;;;;;6.47;5.97;;;40.60;1.00;;;;;;4995577;28;20550;-71
2023/06/25 07:37:59;;;;;;;6.57;6.07;;;41.30;1.00;;;;;;4995381;28;20662;-71
2023/06/25 07:40:25;;;;;;;5.80;5.40;;;42.00;1.00;;;;;;4995828;28;20212;-70
2023/06/25 07:42:51;;;;;;;6.43;5.93;;;42.50;1.00;;;;;;4995349;28;20191;-71
2023/06/25 07:45:16;;;;;;;6.80;6.30;;;41.00;1.00;;;;;;4995365;28;20589;-72
2023/06/25 07:47:42;;;;;;;6.47;5.97;;;41.00;1.00;;;;;;4995407;28;20217;-71
2023/06/25 07:50:07;;;;;;;6.77;6.27;;;42.60;1.00;;;;;;4995294;28;20169;-70
2023/06/25 07:52:33;;;;;;;6.53;5.93;;;43.60;1.00;;;;;;4994895;28;20548;-71
2023/06/25 07:54:59;;;;;;;7.37;6.70;;;43.70;1.00;;;;;;4995343;28;20798;-72
2023/06/25 07:57:25;;;;;;;6.83;6.33;;;43.60;1.00;;;;;;5010455;23;20682;-70
2023/06/25 07:59:53;;;;;;;7.17;6.63;;;43.80;1.00;;;;;;5014467;28;20489;-70
2023/06/25 08:02:18;;;;;;;7.10;6.60;;;43.30;1.00;;;;;;5014617;28;20179;-69
2023/06/25 08:04:44;;;;;;;7.60;6.90;;;42.90;1.00;;;;;;5014485;28;20408;-70
2023/06/25 08:07:09;;;;;;;7.13;6.53;;;42.40;1.00;;;;;;5014505;28;20211;-70
2023/06/25 08:09:35;;;;;;;6.27;5.77;;;43.20;1.00;;;;;;5014516;28;20195;-70
2023/06/25 08:12:00;;;;;;;6.50;6.00;;;43.00;1.00;;;;;;5014377;28;20279;-70
2023/06/25 08:14:26;;;;;;;7.00;6.47;;;43.30;1.00;;;;;;5014487;28;20637;-69
2023/06/25 08:16:51;;;;;;;5.93;5.53;;;43.20;1.00;;;;;;5014430;28;20188;-70
2023/06/25 08:19:17;;;;;;;6.70;5.93;;;42.50;1.00;;;;;;5014272;28;20258;-70
2023/06/25 08:21:42;;;;;;;5.67;5.23;;;43.10;1.00;;;;;;5014205;28;20287;-70
2023/06/25 08:24:08;;;;;;;6.00;5.60;;;42.80;1.00;;;;;;5014343;28;20187;-70
2023/06/25 08:26:33;;;;;;;6.07;5.60;;;42.40;1.00;;;;;;5014413;28;20207;-70
2023/06/25 08:28:59;;;;;;;5.90;5.50;;;43.10;1.00;;;;;;5014103;28;20188;-70
2023/06/25 08:31:24;;;;;;;6.07;5.57;;;42.20;1.00;;;;;;5014072;28;20203;-69
2023/06/25 08:33:50;;;;;;;6.60;6.10;;;42.00;1.00;;;;;;5014406;28;20201;-70
2023/06/25 08:36:15;;;;;;;6.27;5.77;;;42.80;1.00;;;;;;5013966;28;20184;-69
2023/06/25 08:38:41;;;;;;;6.37;5.97;;;43.70;1.00;;;;;;5012628;28;20203;-70
2023/06/25 08:41:06;;;;;;;6.43;6.03;;;43.30;1.00;;;;;;5013996;28;20590;-70
2023/06/25 08:43:32;;;;;;;6.30;5.90;;;41.80;1.00;;;;;;5013805;28;20676;-70
2023/06/25 08:45:58;;;;;;;6.30;5.87;;;40.90;1.00;;;;;;5013751;28;20208;-69
2023/06/25 08:48:25;;;;;;;6.07;5.53;;;39.70;1.00;;;;;;5013668;28;20203;-69
2023/06/25 08:50:55;;;;;;;6.17;5.67;;;39.70;1.00;;;;;;5013630;28;20676;-69
2023/06/25 08:53:23;;;;;;;5.80;5.40;;;40.60;1.00;;;;;;5013527;28;20766;-69
2023/06/25 08:55:50;;;;;;;6.10;5.63;;;41.30;1.00;;;;;;5013628;28;20785;-69
2023/06/25 08:58:15;;;;;;;5.70;5.30;;;41.10;1.00;;;;;;5013618;28;20509;-69
2023/06/25 09:00:41;;;;;;;6.37;5.77;;;41.40;1.00;;;;;;5013496;28;20431;-69
2023/06/25 09:03:06;;;;;;;6.63;6.13;;;41.60;1.00;;;;;;5013252;28;20250;-69
2023/06/25 09:05:33;;;;;;;5.40;4.90;;;41.80;1.00;;;;;;5013398;28;20176;-69
2023/06/25 09:07:59;;;;;;;5.40;5.00;;;42.70;1.00;;;;;;5013328;28;20215;-69
2023/06/25 09:10:26;;;;;;;6.30;5.80;;;42.90;1.00;;;;;;5013348;28;20489;-70
2023/06/25 09:12:52;;;;;;;5.90;5.40;;;41.90;1.00;;;;;;5013211;28;20637;-69
2023/06/25 09:15:21;;;;;;;6.20;5.70;;;41.70;1.00;;;;;;5013397;28;20494;-70
2023/06/25 09:17:47;;;;;;;6.13;5.63;;;42.00;1.00;;;;;;5014139;28;20204;-69
2023/06/25 09:20:13;;;;;;;6.50;6.10;;;40.60;1.00;;;;;;5011874;28;20429;-69
2023/06/25 09:22:52;;;;;;;5.97;5.57;;;38.30;1.00;;;;;;5013117;28;20180;-69
2023/06/25 09:25:26;;;;;;;6.33;5.80;;;35.40;1.00;;;;;;5012724;28;20418;-70
2023/06/25 09:27:52;;;;;;;5.53;5.00;;;33.40;1.00;;;;;;5013091;28;20450;-70
2023/06/25 09:30:21;;;;;;;6.43;5.57;;;31.70;1.00;;;;;;5012942;28;20822;-70
2023/06/25 09:32:51;;;;;;;7.43;6.70;;;30.70;1.00;;;;;;5012895;28;20168;-69
2023/06/25 09:35:24;;;;;;;6.50;5.90;;;29.90;1.00;;;;;;5013112;28;20832;-69
2023/06/25 09:37:51;;;;;;;6.53;6.03;;;29.20;1.00;;;;;;5012966;28;20951;-69
2023/06/25 09:40:17;;;;;;;5.73;5.30;;;28.80;1.00;;;;;;5012968;28;20407;-69
2023/06/25 09:42:44;;;;;;;6.13;5.53;;;28.50;1.00;;;;;;5012747;28;20414;-69
2023/06/25 09:45:13;;;;;;;5.67;5.27;;;28.40;1.00;;;;;;5012792;28;20449;-69
2023/06/25 09:47:42;;;;;;;6.00;5.50;;;28.30;1.00;;;;;;5012578;28;20542;-69
2023/06/25 09:50:17;;;;;;;5.80;5.30;;;28.20;1.00;;;;;;5013090;28;20457;-69
2023/06/25 09:52:50;;;;;;;6.60;6.00;;;28.20;1.00;;;;;;5012782;28;20414;-69
2023/06/25 09:55:17;;;;;;;5.97;5.47;;;28.30;1.00;;;;;;5012678;28;20486;-69
2023/06/25 09:57:43;;;;;;;5.40;5.00;;;28.10;1.00;;;;;;5011503;28;20458;-69
2023/06/25 10:00:10;;;;;;;5.33;4.93;;;28.00;1.00;;;;;;5012684;28;20817;-69
2023/06/25 10:02:36;;;;;;;5.80;5.30;;;28.00;1.00;;;;;;5011231;28;20840;-69
2023/06/25 10:05:02;;;;;;;6.90;5.63;;;28.00;1.00;;;;;;5012693;28;20415;-69
2023/06/25 10:07:28;;;;;;;6.10;5.60;;;28.00;1.00;;;;;;5011240;28;20565;-69
2023/06/25 10:09:54;;;;;;;6.17;5.67;;;28.10;1.00;;;;;;5012784;28;20182;-69
2023/06/25 10:12:20;;;;;;;7.07;6.47;;;28.00;1.00;;;;;;5013109;28;20415;-70
2023/06/25 10:14:47;;;;;;;6.53;5.90;;;28.00;1.00;;;;;;5012861;28;20410;-70
2023/06/25 10:17:13;;;;;;;6.93;6.33;;;27.90;1.00;;;;;;5012385;28;20179;-71
2023/06/25 10:19:38;;;;;;;6.10;5.70;;;28.10;1.00;;;;;;5012493;28;20439;-70
2023/06/25 10:22:12;;;;;;;5.90;5.40;;;28.20;1.00;;;;;;5012789;28;20461;-70
2023/06/25 10:24:58;;;;;;;5.83;5.43;;;28.10;1.00;;;;;;5012350;28;20180;-71
2023/06/25 10:27:26;;;;;;;6.63;5.90;;;28.20;1.00;;;;;;5011920;28;20493;-70
2023/06/25 10:29:52;;;;;;;7.17;6.57;;;28.20;1.00;;;;;;5012536;28;20464;-70
2023/06/25 10:32:26;;;;;;;6.13;5.63;;;28.00;1.00;;;;;;5012000;28;20415;-70
2023/06/25 10:35:02;;;;;;;5.87;5.37;;;27.80;1.00;;;;;;5012150;28;20490;-70
2023/06/25 10:37:29;;;;;;;6.20;5.70;;;28.00;1.00;;;;;;5012145;28;20422;-70
2023/06/25 10:40:02;;;;;;;6.30;5.80;;;28.10;1.00;;;;;;5016787;28;20423;-70
2023/06/25 10:42:30;;;;;;;5.63;5.20;;;28.30;1.00;;;;;;5016160;28;20414;-70
2023/06/25 10:44:55;;;;;;;6.00;5.60;;;28.30;1.00;;;;;;5016149;28;20418;-70
2023/06/25 10:47:21;;;;;;;6.40;5.80;;;28.20;1.00;;;;;;5017440;28;20454;-70
2023/06/25 10:49:46;;;;;;;6.53;6.00;;;28.40;1.00;;;;;;5017795;28;20183;-70
2023/06/25 10:52:12;;;;;;;6.70;6.00;;;28.40;1.00;;;;;;5017543;28;20249;-71
2023/06/25 10:54:37;;;;;;;7.10;6.53;;;28.30;1.00;;;;;;5018078;28;20259;-70
2023/06/25 10:57:06;;;;;;;6.70;6.00;;;28.20;1.00;;;;;;5017842;28;20191;-71
2023/06/25 10:59:32;;;;;;;8.37;7.57;;;28.30;1.00;;;;;;5017750;28;20249;-70
2023/06/25 11:02:14;;;;;;;7.13;6.63;;;28.30;1.00;;;;;;5017307;28;20474;-70
2023/06/25 11:04:41;;;;;;;6.77;6.13;;;28.50;1.00;;;;;;5018025;28;20595;-70
2023/06/25 11:07:08;;;;;;;6.10;5.60;;;28.50;1.00;;;;;;5017727;28;20826;-70
2023/06/25 11:09:34;;;;;;;7.60;6.70;;;28.60;1.00;;;;;;5018131;28;20443;-70
2023/06/25 11:11:59;;;;;;;6.57;5.97;;;28.70;1.00;;;;;;5017858;28;20911;-71
2023/06/25 11:14:25;;;;;;;7.80;7.17;;;28.50;1.00;;;;;;5017586;28;20353;-71
2023/06/25 11:16:51;;;;;;;10.60;9.60;;;28.40;1.00;;;;;;5015958;28;20198;-70
2023/06/25 11:19:16;;;;;;;5.90;5.43;;;28.40;1.00;;;;;;5017290;28;20443;-70
2023/06/25 11:21:42;;;;;;;6.40;5.90;;;28.10;1.00;;;;;;5017194;28;20634;-70
2023/06/25 11:24:12;;;;;;;8.93;6.40;;;28.20;1.00;;;;;;5017682;28;20184;-70
2023/06/25 11:26:41;;;;;;;9.07;8.37;;;28.30;1.00;;;;;;5015768;28;20219;-70
2023/06/25 11:29:11;;;;;;;6.73;6.13;;;28.20;1.00;;;;;;5017136;28;20431;-71
2023/06/25 11:31:52;;;;;;;7.63;6.90;;;28.40;1.00;;;;;;5016001;28;20415;-70
2023/06/25 11:34:25;;;;;;;10.40;6.53;;;28.50;1.00;;;;;;5016893;28;20395;-72
2023/06/25 11:36:51;;;;;;;6.67;6.17;;;28.60;1.00;;;;;;5016389;28;20469;-71
2023/06/25 11:39:17;;;;;;;6.97;6.27;;;28.60;1.00;;;;;;5015045;28;20512;-72
2023/06/25 11:41:43;;;;;;;7.40;6.60;;;28.60;1.00;;;;;;5016911;28;20423;-72
2023/06/25 11:44:19;;;;;;;7.30;6.57;;;28.60;1.00;;;;;;5017050;28;20791;-71
2023/06/25 11:46:49;;;;;;;7.33;6.63;;;28.70;1.00;;;;;;5017074;28;20481;-70
2023/06/25 11:49:15;;;;;;;6.80;6.20;;;28.80;1.00;;;;;;5014851;28;20453;-70
2023/06/25 11:51:41;;;;;;;6.57;6.17;;;29.00;1.00;;;;;;5016056;28;20778;-71
2023/06/25 11:54:06;;;;;;;6.50;6.00;;;29.00;1.00;;;;;;5016685;28;20184;-71
2023/06/25 11:56:33;;;;;;;6.27;5.77;;;29.10;1.00;;;;;;5016120;28;20180;-70
2023/06/25 11:58:58;;;;;;;6.03;5.63;;;29.10;1.00;;;;;;5015292;28;20454;-70
2023/06/25 12:01:25;;;;;;;5.77;5.30;;;29.10;1.00;;;;;;5015942;28;20830;-70
2023/06/25 12:03:50;;;;;;;5.77;5.37;;;29.10;1.00;;;;;;5015345;28;20591;-70
2023/06/25 12:06:16;;;;;;;6.30;5.80;;;29.20;1.00;;;;;;5016342;28;20462;-70
2023/06/25 12:08:42;;;;;;;6.30;5.80;;;29.20;1.00;;;;;;5016110;28;20210;-70
2023/06/25 12:11:07;;;;;;;6.97;6.30;;;29.00;1.00;;;;;;5014319;28;20584;-70
2023/06/25 12:13:33;;;;;;;6.63;6.13;;;29.00;1.00;;;;;;5015352;28;20180;-70
2023/06/25 12:15:58;;;;;;;7.40;6.73;;;29.00;1.00;;;;;;5014470;28;20696;-70
2023/06/25 12:18:24;;;;;;;6.10;5.60;;;29.10;1.00;;;;;;5014456;28;20203;-71
2023/06/25 12:20:49;;;;;;;7.07;6.47;;;29.20;1.00;;;;;;5014516;28;20606;-71
2023/06/25 12:23:15;;;;;;;6.27;5.77;;;29.30;1.00;;;;;;5012905;28;20184;-71
2023/06/25 12:25:40;;;;;;;6.43;5.93;;;29.20;1.00;;;;;;5014251;28;20207;-71
2023/06/25 12:28:06;;;;;;;7.13;6.43;;;29.20;1.00;;;;;;5012893;28;20196;-70
2023/06/25 12:30:32;;;;;;;6.30;5.80;;;29.20;1.00;;;;;;5014737;28;20184;-70
2023/06/25 12:32:57;;;;;;;9.23;6.90;;;29.20;1.00;;;;;;5013746;28;20322;-71
2023/06/25 12:35:23;;;;;;;7.67;7.07;;;29.30;1.00;;;;;;5015441;28;20175;-71
2023/06/25 12:37:49;;;;;;;7.40;6.80;;;29.40;1.00;;;;;;5014861;28;20200;-71
2023/06/25 12:40:14;;;;;;;5.97;5.27;;;29.40;1.00;;;;;;5013553;28;20435;-71
2023/06/25 12:42:40;;;;;;;7.67;6.67;;;29.30;1.00;;;;;;5014436;28;20184;-70
2023/06/25 12:45:08;;;;;;;7.10;6.50;;;29.30;1.00;;;;;;5014214;28;20250;-69
2023/06/25 12:47:33;;;;;;;6.07;5.57;;;29.30;1.00;;;;;;5013880;28;20235;-69
2023/06/25 12:49:59;;;;;;;6.97;6.40;;;29.30;1.00;;;;;;5013728;28;20446;-69